sensor_id;sensor_type;location;lat;lon;timestamp;temperature;humidity
1225;DHT22;602;48.000;7.840;2022-11-15T00:01:16;13.40;99.90
1225;DHT22;602;48.000;7.840;2022-11-15T00:03:43;13.50;99.90
1225;DHT22;602;48.000;7.840;2022-11-15T00:06:10;13.50;99.90
1225;DHT22;602;48.000;7.840;2022-11-15T00:08:37;13.50;99.90
1225;DHT22;602;48.000;7.840;2022-11-15T00:11:04;13.50;99.90
1225;DHT22;602;48.000;7.840;2022-11-15T00:13:32;13.40;99.90
1225;DHT22;602;48.000;7.840;2022-11-15T00:16:00;13.50;99.90
1225;DHT22;602;48.000;7.840;2022-11-15T00:18:28;13.50;99.90
1225;DHT22;602;48.000;7.840;2022-11-15T00:20:55;13.50;99.90
1225;DHT22;602;48.000;7.840;2022-11-15T00:23:22;13.40;99.90
1225;DHT22;602;48.000;7.840;2022-11-15T00:25:55;13.40;99.90
1225;DHT22;602;48.000;7.840;2022-11-15T00:28:22;13.40;99.90
1225;DHT22;602;48.000;7.840;2022-11-15T00:30:50;13.30;99.90
1225;DHT22;602;48.000;7.840;2022-11-15T00:33:17;13.40;99.90
1225;DHT22;602;48.000;7.840;2022-11-15T00:35:44;13.50;99.90
1225;DHT22;602;48.000;7.840;2022-11-15T00:38:11;13.60;99.90
1225;DHT22;602;48.000;7.840;2022-11-15T00:40:38;13.50;99.90
1225;DHT22;602;48.000;7.840;2022-11-15T00:43:05;13.40;99.90
1225;DHT22;602;48.000;7.840;2022-11-15T00:45:32;13.40;99.90
1225;DHT22;602;48.000;7.840;2022-11-15T00:48:00;13.40;99.90
1225;DHT22;602;48.000;7.840;2022-11-15T00:50:27;13.30;99.90
1225;DHT22;602;48.000;7.840;2022-11-15T00:52:54;13.30;99.90
1225;DHT22;602;48.000;7.840;2022-11-15T00:55:20;13.30;99.90
1225;DHT22;602;48.000;7.840;2022-11-15T00:57:47;13.30;99.90
1225;DHT22;602;48.000;7.840;2022-11-15T01:00:15;13.40;99.90
1225;DHT22;602;48.000;7.840;2022-11-15T01:02:41;13.30;99.90
1225;DHT22;602;48.000;7.840;2022-11-15T01:05:10;13.30;99.90
1225;DHT22;602;48.000;7.840;2022-11-15T01:07:36;13.30;99.90
1225;DHT22;602;48.000;7.840;2022-11-15T01:10:04;13.40;99.90
1225;DHT22;602;48.000;7.840;2022-11-15T01:12:31;13.40;99.90
1225;DHT22;602;48.000;7.840;2022-11-15T01:14:58;13.40;99.90
1225;DHT22;602;48.000;7.840;2022-11-15T01:17:25;13.50;99.90
1225;DHT22;602;48.000;7.840;2022-11-15T01:19:52;13.60;99.90
1225;DHT22;602;48.000;7.840;2022-11-15T01:22:20;13.80;99.90
1225;DHT22;602;48.000;7.840;2022-11-15T01:24:49;13.90;99.90
1225;DHT22;602;48.000;7.840;2022-11-15T01:27:16;13.90;99.90
1225;DHT22;602;48.000;7.840;2022-11-15T01:29:43;14.00;99.90
1225;DHT22;602;48.000;7.840;2022-11-15T01:32:09;14.10;99.90
1225;DHT22;602;48.000;7.840;2022-11-15T01:34:36;14.20;99.90
1225;DHT22;602;48.000;7.840;2022-11-15T01:37:03;14.20;99.90
1225;DHT22;602;48.000;7.840;2022-11-15T01:39:31;14.30;99.90
1225;DHT22;602;48.000;7.840;2022-11-15T01:41:58;14.30;99.90
1225;DHT22;602;48.000;7.840;2022-11-15T01:44:43;14.30;99.90
1225;DHT22;602;48.000;7.840;2022-11-15T01:47:14;14.30;99.90
1225;DHT22;602;48.000;7.840;2022-11-15T01:49:49;14.20;99.90
1225;DHT22;602;48.000;7.840;2022-11-15T01:52:19;14.10;99.90
1225;DHT22;602;48.000;7.840;2022-11-15T01:54:50;14.30;99.90
1225;DHT22;602;48.000;7.840;2022-11-15T01:57:19;14.10;99.90
1225;DHT22;602;48.000;7.840;2022-11-15T01:59:47;14.20;99.90
1225;DHT22;602;48.000;7.840;2022-11-15T02:02:14;14.20;99.90
1225;DHT22;602;48.000;7.840;2022-11-15T02:04:42;14.30;99.90
1225;DHT22;602;48.000;7.840;2022-11-15T02:07:11;14.30;99.90
1225;DHT22;602;48.000;7.840;2022-11-15T02:09:39;14.30;99.90
1225;DHT22;602;48.000;7.840;2022-11-15T02:12:09;14.50;99.90
1225;DHT22;602;48.000;7.840;2022-11-15T02:14:39;14.50;99.90
1225;DHT22;602;48.000;7.840;2022-11-15T02:17:29;14.50;99.90
1225;DHT22;602;48.000;7.840;2022-11-15T02:23:38;14.50;99.90
1225;DHT22;602;48.000;7.840;2022-11-15T02:29:37;14.40;99.90
1225;DHT22;602;48.000;7.840;2022-11-15T02:32:12;14.40;99.90
1225;DHT22;602;48.000;7.840;2022-11-15T02:34:50;14.40;99.90
1225;DHT22;602;48.000;7.840;2022-11-15T02:37:23;14.40;99.90
1225;DHT22;602;48.000;7.840;2022-11-15T02:40:00;14.50;99.90
1225;DHT22;602;48.000;7.840;2022-11-15T02:42:32;14.70;99.90
1225;DHT22;602;48.000;7.840;2022-11-15T02:45:21;14.70;99.90
1225;DHT22;602;48.000;7.840;2022-11-15T02:47:53;14.80;99.90
1225;DHT22;602;48.000;7.840;2022-11-15T02:50:24;14.90;99.90
1225;DHT22;602;48.000;7.840;2022-11-15T02:52:52;14.90;99.90
1225;DHT22;602;48.000;7.840;2022-11-15T02:55:27;15.00;99.90
1225;DHT22;602;48.000;7.840;2022-11-15T02:58:03;15.00;99.90
1225;DHT22;602;48.000;7.840;2022-11-15T03:00:35;15.10;99.90
1225;DHT22;602;48.000;7.840;2022-11-15T03:06:19;15.00;99.90
1225;DHT22;602;48.000;7.840;2022-11-15T03:08:54;15.10;99.90
1225;DHT22;602;48.000;7.840;2022-11-15T03:11:23;15.00;99.90
1225;DHT22;602;48.000;7.840;2022-11-15T03:13:56;15.00;99.90
1225;DHT22;602;48.000;7.840;2022-11-15T03:16:28;14.90;99.90
1225;DHT22;602;48.000;7.840;2022-11-15T03:19:02;14.90;99.90
1225;DHT22;602;48.000;7.840;2022-11-15T03:21:30;14.90;99.90
1225;DHT22;602;48.000;7.840;2022-11-15T03:24:02;15.00;99.90
1225;DHT22;602;48.000;7.840;2022-11-15T03:26:31;14.80;99.90
1225;DHT22;602;48.000;7.840;2022-11-15T03:29:03;14.70;99.90
1225;DHT22;602;48.000;7.840;2022-11-15T03:31:34;14.60;99.90
1225;DHT22;602;48.000;7.840;2022-11-15T03:34:22;14.50;99.90
1225;DHT22;602;48.000;7.840;2022-11-15T03:36:51;14.40;99.90
1225;DHT22;602;48.000;7.840;2022-11-15T03:39:19;14.30;99.90
1225;DHT22;602;48.000;7.840;2022-11-15T03:41:49;14.20;99.90
1225;DHT22;602;48.000;7.840;2022-11-15T03:44:25;14.10;99.90
1225;DHT22;602;48.000;7.840;2022-11-15T03:47:02;14.10;99.90
1225;DHT22;602;48.000;7.840;2022-11-15T03:49:33;14.20;99.90
1225;DHT22;602;48.000;7.840;2022-11-15T03:52:01;14.30;99.90
1225;DHT22;602;48.000;7.840;2022-11-15T03:54:28;14.50;99.90
1225;DHT22;602;48.000;7.840;2022-11-15T03:56:55;14.50;99.90
1225;DHT22;602;48.000;7.840;2022-11-15T03:59:22;14.60;99.90
1225;DHT22;602;48.000;7.840;2022-11-15T04:01:49;14.60;99.90
1225;DHT22;602;48.000;7.840;2022-11-15T04:04:16;14.70;99.90
1225;DHT22;602;48.000;7.840;2022-11-15T04:06:44;14.70;99.90
1225;DHT22;602;48.000;7.840;2022-11-15T04:09:11;14.60;99.90
1225;DHT22;602;48.000;7.840;2022-11-15T04:11:38;14.50;99.90
1225;DHT22;602;48.000;7.840;2022-11-15T04:14:05;14.50;99.90
1225;DHT22;602;48.000;7.840;2022-11-15T04:16:32;14.30;99.90
1225;DHT22;602;48.000;7.840;2022-11-15T04:18:58;14.30;99.90
1225;DHT22;602;48.000;7.840;2022-11-15T04:21:44;14.30;99.90
1225;DHT22;602;48.000;7.840;2022-11-15T04:24:37;14.40;99.90
1225;DHT22;602;48.000;7.840;2022-11-15T04:27:03;14.30;99.90
1225;DHT22;602;48.000;7.840;2022-11-15T04:29:30;14.30;99.90
1225;DHT22;602;48.000;7.840;2022-11-15T04:32:04;14.30;99.90
1225;DHT22;602;48.000;7.840;2022-11-15T04:34:31;14.20;99.90
1225;DHT22;602;48.000;7.840;2022-11-15T04:37:00;14.20;99.90
1225;DHT22;602;48.000;7.840;2022-11-15T04:39:39;14.10;99.90
1225;DHT22;602;48.000;7.840;2022-11-15T04:42:06;14.10;99.90
1225;DHT22;602;48.000;7.840;2022-11-15T04:44:33;14.00;99.90
1225;DHT22;602;48.000;7.840;2022-11-15T04:47:00;14.00;99.90
1225;DHT22;602;48.000;7.840;2022-11-15T04:49:27;14.00;99.90
1225;DHT22;602;48.000;7.840;2022-11-15T04:51:54;14.00;99.90
1225;DHT22;602;48.000;7.840;2022-11-15T04:54:22;14.00;99.90
1225;DHT22;602;48.000;7.840;2022-11-15T04:56:49;13.90;99.90
1225;DHT22;602;48.000;7.840;2022-11-15T04:59:15;14.00;99.90
1225;DHT22;602;48.000;7.840;2022-11-15T05:01:42;14.00;99.90
1225;DHT22;602;48.000;7.840;2022-11-15T05:04:09;14.00;99.90
1225;DHT22;602;48.000;7.840;2022-11-15T05:06:48;13.90;99.90
1225;DHT22;602;48.000;7.840;2022-11-15T05:09:16;14.00;99.90
1225;DHT22;602;48.000;7.840;2022-11-15T05:11:44;13.90;99.90
1225;DHT22;602;48.000;7.840;2022-11-15T05:14:12;13.90;99.90
1225;DHT22;602;48.000;7.840;2022-11-15T05:16:39;13.70;99.90
1225;DHT22;602;48.000;7.840;2022-11-15T05:19:06;13.70;99.90
1225;DHT22;602;48.000;7.840;2022-11-15T05:21:33;13.60;99.90
1225;DHT22;602;48.000;7.840;2022-11-15T05:24:00;13.70;99.90
1225;DHT22;602;48.000;7.840;2022-11-15T05:26:27;13.70;99.90
1225;DHT22;602;48.000;7.840;2022-11-15T05:28:57;13.70;99.90
1225;DHT22;602;48.000;7.840;2022-11-15T05:31:25;13.70;99.90
1225;DHT22;602;48.000;7.840;2022-11-15T05:33:54;13.80;99.90
1225;DHT22;602;48.000;7.840;2022-11-15T05:36:27;13.70;99.90
1225;DHT22;602;48.000;7.840;2022-11-15T05:38:56;13.70;99.90
1225;DHT22;602;48.000;7.840;2022-11-15T05:41:26;13.70;99.90
1225;DHT22;602;48.000;7.840;2022-11-15T05:43:53;13.70;99.90
1225;DHT22;602;48.000;7.840;2022-11-15T05:46:22;13.80;99.90
1225;DHT22;602;48.000;7.840;2022-11-15T05:48:50;13.80;99.90
1225;DHT22;602;48.000;7.840;2022-11-15T05:51:19;13.70;99.90
1225;DHT22;602;48.000;7.840;2022-11-15T05:53:47;13.60;99.90
1225;DHT22;602;48.000;7.840;2022-11-15T05:56:14;13.60;99.90
1225;DHT22;602;48.000;7.840;2022-11-15T05:58:41;13.60;99.90
1225;DHT22;602;48.000;7.840;2022-11-15T06:01:08;13.50;99.90
1225;DHT22;602;48.000;7.840;2022-11-15T06:03:37;13.50;99.90
1225;DHT22;602;48.000;7.840;2022-11-15T06:06:04;13.60;99.90
1225;DHT22;602;48.000;7.840;2022-11-15T06:08:31;13.50;99.90
1225;DHT22;602;48.000;7.840;2022-11-15T06:11:03;13.40;99.90
1225;DHT22;602;48.000;7.840;2022-11-15T06:13:33;13.40;99.90
1225;DHT22;602;48.000;7.840;2022-11-15T06:16:00;13.50;99.90
1225;DHT22;602;48.000;7.840;2022-11-15T06:18:27;13.60;99.90
1225;DHT22;602;48.000;7.840;2022-11-15T06:20:58;13.60;99.90
1225;DHT22;602;48.000;7.840;2022-11-15T06:23:25;13.60;99.90
1225;DHT22;602;48.000;7.840;2022-11-15T06:25:52;13.60;99.90
1225;DHT22;602;48.000;7.840;2022-11-15T06:28:18;13.50;99.90
1225;DHT22;602;48.000;7.840;2022-11-15T06:30:45;13.50;99.90
1225;DHT22;602;48.000;7.840;2022-11-15T06:33:12;13.40;99.90
1225;DHT22;602;48.000;7.840;2022-11-15T06:35:39;13.50;99.90
1225;DHT22;602;48.000;7.840;2022-11-15T06:38:10;13.40;99.90
1225;DHT22;602;48.000;7.840;2022-11-15T06:40:38;13.40;99.90
1225;DHT22;602;48.000;7.840;2022-11-15T06:43:06;13.40;99.90
1225;DHT22;602;48.000;7.840;2022-11-15T06:45:32;13.40;99.90
1225;DHT22;602;48.000;7.840;2022-11-15T06:47:59;13.30;99.90
1225;DHT22;602;48.000;7.840;2022-11-15T06:50:26;13.30;99.90
1225;DHT22;602;48.000;7.840;2022-11-15T06:52:53;13.30;99.90
1225;DHT22;602;48.000;7.840;2022-11-15T06:55:22;13.30;99.90
1225;DHT22;602;48.000;7.840;2022-11-15T06:57:50;13.30;99.90
1225;DHT22;602;48.000;7.840;2022-11-15T07:00:18;13.30;99.90
1225;DHT22;602;48.000;7.840;2022-11-15T07:02:46;13.30;99.90
1225;DHT22;602;48.000;7.840;2022-11-15T07:05:13;13.30;99.90
1225;DHT22;602;48.000;7.840;2022-11-15T07:07:41;13.40;99.90
1225;DHT22;602;48.000;7.840;2022-11-15T07:10:09;13.40;99.90
1225;DHT22;602;48.000;7.840;2022-11-15T07:12:37;13.40;99.90
1225;DHT22;602;48.000;7.840;2022-11-15T07:15:05;13.40;99.90
1225;DHT22;602;48.000;7.840;2022-11-15T07:17:32;13.40;99.90
1225;DHT22;602;48.000;7.840;2022-11-15T07:19:58;13.50;99.90
1225;DHT22;602;48.000;7.840;2022-11-15T07:22:25;13.50;99.90
1225;DHT22;602;48.000;7.840;2022-11-15T07:24:52;13.50;99.90
1225;DHT22;602;48.000;7.840;2022-11-15T07:27:19;13.50;99.90
1225;DHT22;602;48.000;7.840;2022-11-15T07:29:47;13.60;99.90
1225;DHT22;602;48.000;7.840;2022-11-15T07:32:14;13.60;99.90
1225;DHT22;602;48.000;7.840;2022-11-15T07:34:41;13.70;99.90
1225;DHT22;602;48.000;7.840;2022-11-15T07:37:08;13.70;99.90
1225;DHT22;602;48.000;7.840;2022-11-15T07:39:35;13.70;99.90
1225;DHT22;602;48.000;7.840;2022-11-15T07:42:02;13.80;99.90
1225;DHT22;602;48.000;7.840;2022-11-15T07:44:47;13.80;99.90
1225;DHT22;602;48.000;7.840;2022-11-15T07:47:14;13.80;99.90
1225;DHT22;602;48.000;7.840;2022-11-15T07:49:41;13.80;99.90
1225;DHT22;602;48.000;7.840;2022-11-15T07:52:08;13.80;99.90
1225;DHT22;602;48.000;7.840;2022-11-15T07:54:35;13.80;99.90
1225;DHT22;602;48.000;7.840;2022-11-15T07:57:02;13.90;99.90
1225;DHT22;602;48.000;7.840;2022-11-15T07:59:29;13.90;99.90
1225;DHT22;602;48.000;7.840;2022-11-15T08:01:57;13.90;99.90
1225;DHT22;602;48.000;7.840;2022-11-15T08:04:24;13.90;99.90
1225;DHT22;602;48.000;7.840;2022-11-15T08:06:51;13.90;99.90
1225;DHT22;602;48.000;7.840;2022-11-15T08:09:18;13.90;99.90
1225;DHT22;602;48.000;7.840;2022-11-15T08:11:44;13.90;99.90
1225;DHT22;602;48.000;7.840;2022-11-15T08:14:11;13.80;99.90
1225;DHT22;602;48.000;7.840;2022-11-15T08:16:38;13.90;99.90
1225;DHT22;602;48.000;7.840;2022-11-15T08:19:06;14.00;99.90
1225;DHT22;602;48.000;7.840;2022-11-15T08:21:33;13.90;99.90
1225;DHT22;602;48.000;7.840;2022-11-15T08:24:00;13.80;99.90
1225;DHT22;602;48.000;7.840;2022-11-15T08:26:27;13.70;99.90
1225;DHT22;602;48.000;7.840;2022-11-15T08:28:55;13.80;99.90
1225;DHT22;602;48.000;7.840;2022-11-15T08:31:22;13.80;99.90
1225;DHT22;602;48.000;7.840;2022-11-15T08:33:49;13.70;99.90
1225;DHT22;602;48.000;7.840;2022-11-15T08:36:17;13.60;99.90
1225;DHT22;602;48.000;7.840;2022-11-15T08:38:44;13.60;99.90
1225;DHT22;602;48.000;7.840;2022-11-15T08:41:14;13.60;99.90
1225;DHT22;602;48.000;7.840;2022-11-15T08:43:41;13.70;99.90
1225;DHT22;602;48.000;7.840;2022-11-15T08:46:09;13.60;99.90
1225;DHT22;602;48.000;7.840;2022-11-15T08:48:37;13.60;99.90
1225;DHT22;602;48.000;7.840;2022-11-15T08:51:04;13.50;99.90
1225;DHT22;602;48.000;7.840;2022-11-15T08:53:33;13.60;99.90
1225;DHT22;602;48.000;7.840;2022-11-15T08:56:00;13.60;99.90
1225;DHT22;602;48.000;7.840;2022-11-15T08:58:28;13.70;99.90
1225;DHT22;602;48.000;7.840;2022-11-15T09:00:55;13.80;99.90
1225;DHT22;602;48.000;7.840;2022-11-15T09:03:21;13.90;99.90
1225;DHT22;602;48.000;7.840;2022-11-15T09:05:48;14.00;99.90
1225;DHT22;602;48.000;7.840;2022-11-15T09:08:15;14.10;99.90
1225;DHT22;602;48.000;7.840;2022-11-15T09:10:43;14.00;99.90
1225;DHT22;602;48.000;7.840;2022-11-15T09:13:10;14.10;99.90
1225;DHT22;602;48.000;7.840;2022-11-15T09:15:37;14.30;99.90
1225;DHT22;602;48.000;7.840;2022-11-15T09:18:04;14.40;99.90
1225;DHT22;602;48.000;7.840;2022-11-15T09:20:31;14.40;99.90
1225;DHT22;602;48.000;7.840;2022-11-15T09:22:59;14.40;99.90
1225;DHT22;602;48.000;7.840;2022-11-15T09:25:28;14.50;99.90
1225;DHT22;602;48.000;7.840;2022-11-15T09:27:56;14.60;99.90
1225;DHT22;602;48.000;7.840;2022-11-15T09:30:24;14.60;99.90
1225;DHT22;602;48.000;7.840;2022-11-15T09:32:51;14.40;99.90
1225;DHT22;602;48.000;7.840;2022-11-15T09:35:18;14.40;99.90
1225;DHT22;602;48.000;7.840;2022-11-15T09:37:44;14.40;99.90
1225;DHT22;602;48.000;7.840;2022-11-15T09:40:13;14.40;99.90
1225;DHT22;602;48.000;7.840;2022-11-15T09:43:10;14.50;99.90
1225;DHT22;602;48.000;7.840;2022-11-15T09:45:54;14.50;99.90
1225;DHT22;602;48.000;7.840;2022-11-15T09:51:24;14.40;99.90
1225;DHT22;602;48.000;7.840;2022-11-15T09:53:57;14.20;99.90
1225;DHT22;602;48.000;7.840;2022-11-15T09:56:27;14.40;99.90
1225;DHT22;602;48.000;7.840;2022-11-15T09:59:04;14.50;99.90
1225;DHT22;602;48.000;7.840;2022-11-15T10:01:41;14.60;99.90
1225;DHT22;602;48.000;7.840;2022-11-15T10:04:11;14.60;99.90
1225;DHT22;602;48.000;7.840;2022-11-15T10:06:42;14.70;99.90
1225;DHT22;602;48.000;7.840;2022-11-15T10:09:15;14.70;99.90
1225;DHT22;602;48.000;7.840;2022-11-15T10:11:42;14.90;99.90
1225;DHT22;602;48.000;7.840;2022-11-15T10:14:14;14.90;99.90
1225;DHT22;602;48.000;7.840;2022-11-15T10:19:53;14.90;99.90
1225;DHT22;602;48.000;7.840;2022-11-15T10:22:26;15.00;99.90
1225;DHT22;602;48.000;7.840;2022-11-15T10:25:00;15.00;99.90
1225;DHT22;602;48.000;7.840;2022-11-15T10:27:33;15.10;99.90
1225;DHT22;602;48.000;7.840;2022-11-15T10:30:04;15.20;99.90
1225;DHT22;602;48.000;7.840;2022-11-15T10:32:36;15.20;99.90
1225;DHT22;602;48.000;7.840;2022-11-15T10:35:17;15.10;99.90
1225;DHT22;602;48.000;7.840;2022-11-15T10:37:44;15.10;99.90
1225;DHT22;602;48.000;7.840;2022-11-15T10:40:17;15.00;99.90
1225;DHT22;602;48.000;7.840;2022-11-15T10:42:45;14.90;99.90
1225;DHT22;602;48.000;7.840;2022-11-15T10:45:29;15.10;99.90
1225;DHT22;602;48.000;7.840;2022-11-15T10:48:20;14.90;99.90
1225;DHT22;602;48.000;7.840;2022-11-15T10:50:49;15.10;99.90
1225;DHT22;602;48.000;7.840;2022-11-15T10:53:21;15.10;99.90
1225;DHT22;602;48.000;7.840;2022-11-15T10:55:50;15.20;99.90
1225;DHT22;602;48.000;7.840;2022-11-15T10:58:27;15.20;99.90
1225;DHT22;602;48.000;7.840;2022-11-15T11:01:09;15.20;99.90
1225;DHT22;602;48.000;7.840;2022-11-15T11:03:37;15.00;99.90
1225;DHT22;602;48.000;7.840;2022-11-15T11:06:08;15.00;99.90
1225;DHT22;602;48.000;7.840;2022-11-15T11:08:35;15.00;99.90
1225;DHT22;602;48.000;7.840;2022-11-15T11:11:03;15.00;99.90
1225;DHT22;602;48.000;7.840;2022-11-15T11:13:32;15.00;99.90
1225;DHT22;602;48.000;7.840;2022-11-15T11:16:21;15.20;99.90
1225;DHT22;602;48.000;7.840;2022-11-15T11:18:56;15.20;99.90
1225;DHT22;602;48.000;7.840;2022-11-15T11:21:30;15.20;99.90
1225;DHT22;602;48.000;7.840;2022-11-15T11:24:08;15.10;99.90
1225;DHT22;602;48.000;7.840;2022-11-15T11:26:42;15.20;99.90
1225;DHT22;602;48.000;7.840;2022-11-15T11:29:30;15.40;99.90
1225;DHT22;602;48.000;7.840;2022-11-15T11:32:05;15.40;99.90
1225;DHT22;602;48.000;7.840;2022-11-15T11:34:44;15.50;99.90
1225;DHT22;602;48.000;7.840;2022-11-15T11:37:20;15.60;99.90
1225;DHT22;602;48.000;7.840;2022-11-15T11:39:55;15.50;99.90
1225;DHT22;602;48.000;7.840;2022-11-15T11:42:34;15.60;99.90
1225;DHT22;602;48.000;7.840;2022-11-15T11:45:15;15.60;99.90
1225;DHT22;602;48.000;7.840;2022-11-15T11:47:47;15.60;99.90
1225;DHT22;602;48.000;7.840;2022-11-15T11:50:18;15.60;99.90
1225;DHT22;602;48.000;7.840;2022-11-15T11:52:57;15.60;99.90
1225;DHT22;602;48.000;7.840;2022-11-15T11:55:28;15.60;99.90
1225;DHT22;602;48.000;7.840;2022-11-15T11:58:04;15.50;99.90
1225;DHT22;602;48.000;7.840;2022-11-15T12:00:34;15.70;99.90
1225;DHT22;602;48.000;7.840;2022-11-15T12:03:11;15.70;99.90
1225;DHT22;602;48.000;7.840;2022-11-15T12:05:41;15.90;99.90
1225;DHT22;602;48.000;7.840;2022-11-15T12:08:30;16.10;99.90
1225;DHT22;602;48.000;7.840;2022-11-15T12:11:04;16.30;99.90
1225;DHT22;602;48.000;7.840;2022-11-15T12:13:33;16.30;99.90
1225;DHT22;602;48.000;7.840;2022-11-15T12:16:07;16.30;99.90
1225;DHT22;602;48.000;7.840;2022-11-15T12:18:37;16.10;99.90
1225;DHT22;602;48.000;7.840;2022-11-15T12:21:08;16.20;99.90
1225;DHT22;602;48.000;7.840;2022-11-15T12:23:43;16.30;99.90
1225;DHT22;602;48.000;7.840;2022-11-15T12:26:18;16.40;99.90
1225;DHT22;602;48.000;7.840;2022-11-15T12:28:48;16.40;99.90
1225;DHT22;602;48.000;7.840;2022-11-15T12:31:19;16.50;99.90
1225;DHT22;602;48.000;7.840;2022-11-15T12:33:49;16.50;99.90
1225;DHT22;602;48.000;7.840;2022-11-15T12:36:35;16.60;99.90
1225;DHT22;602;48.000;7.840;2022-11-15T12:39:04;16.50;99.90
1225;DHT22;602;48.000;7.840;2022-11-15T12:41:33;16.40;99.90
1225;DHT22;602;48.000;7.840;2022-11-15T12:44:01;16.40;99.90
1225;DHT22;602;48.000;7.840;2022-11-15T12:47:00;16.50;99.90
1225;DHT22;602;48.000;7.840;2022-11-15T12:49:45;16.50;99.90
1225;DHT22;602;48.000;7.840;2022-11-15T12:52:13;16.60;99.90
1225;DHT22;602;48.000;7.840;2022-11-15T12:54:57;16.60;99.90
1225;DHT22;602;48.000;7.840;2022-11-15T13:00:44;16.30;99.90
1225;DHT22;602;48.000;7.840;2022-11-15T13:03:24;16.30;99.90
1225;DHT22;602;48.000;7.840;2022-11-15T13:05:57;16.10;99.90
1225;DHT22;602;48.000;7.840;2022-11-15T13:08:46;16.20;99.90
1225;DHT22;602;48.000;7.840;2022-11-15T13:11:43;16.30;99.90
1225;DHT22;602;48.000;7.840;2022-11-15T13:14:40;16.40;99.90
1225;DHT22;602;48.000;7.840;2022-11-15T13:17:27;16.50;99.90
1225;DHT22;602;48.000;7.840;2022-11-15T13:19:59;16.50;99.90
1225;DHT22;602;48.000;7.840;2022-11-15T13:22:28;16.50;99.90
1225;DHT22;602;48.000;7.840;2022-11-15T13:25:35;16.60;99.90
1225;DHT22;602;48.000;7.840;2022-11-15T13:28:11;16.60;99.90
1225;DHT22;602;48.000;7.840;2022-11-15T13:30:39;16.60;99.90
1225;DHT22;602;48.000;7.840;2022-11-15T13:33:09;16.70;99.90
1225;DHT22;602;48.000;7.840;2022-11-15T13:35:40;16.70;99.90
1225;DHT22;602;48.000;7.840;2022-11-15T13:38:19;16.60;99.90
1225;DHT22;602;48.000;7.840;2022-11-15T13:40:51;16.50;99.90
1225;DHT22;602;48.000;7.840;2022-11-15T13:43:27;16.30;99.90
1225;DHT22;602;48.000;7.840;2022-11-15T13:46:11;16.10;99.90
1225;DHT22;602;48.000;7.840;2022-11-15T13:48:39;16.10;99.90
1225;DHT22;602;48.000;7.840;2022-11-15T13:51:09;16.20;99.90
1225;DHT22;602;48.000;7.840;2022-11-15T13:53:40;16.10;99.90
1225;DHT22;602;48.000;7.840;2022-11-15T13:56:08;16.00;99.90
1225;DHT22;602;48.000;7.840;2022-11-15T13:58:37;16.10;99.90
1225;DHT22;602;48.000;7.840;2022-11-15T14:01:05;15.90;99.90
1225;DHT22;602;48.000;7.840;2022-11-15T14:03:46;15.80;99.90
1225;DHT22;602;48.000;7.840;2022-11-15T14:06:15;15.80;99.90
1225;DHT22;602;48.000;7.840;2022-11-15T14:09:03;15.80;99.90
1225;DHT22;602;48.000;7.840;2022-11-15T14:11:31;15.90;99.90
1225;DHT22;602;48.000;7.840;2022-11-15T14:14:13;15.90;99.90
1225;DHT22;602;48.000;7.840;2022-11-15T14:16:42;15.90;99.90
1225;DHT22;602;48.000;7.840;2022-11-15T14:19:11;16.00;99.90
1225;DHT22;602;48.000;7.840;2022-11-15T14:22:09;16.00;99.90
1225;DHT22;602;48.000;7.840;2022-11-15T14:24:37;15.90;99.90
1225;DHT22;602;48.000;7.840;2022-11-15T14:27:22;15.80;99.90
1225;DHT22;602;48.000;7.840;2022-11-15T14:29:49;15.80;99.90
1225;DHT22;602;48.000;7.840;2022-11-15T14:32:18;15.80;99.90
1225;DHT22;602;48.000;7.840;2022-11-15T14:34:46;15.80;99.90
1225;DHT22;602;48.000;7.840;2022-11-15T14:37:19;15.80;99.90
1225;DHT22;602;48.000;7.840;2022-11-15T14:39:49;15.80;99.90
1225;DHT22;602;48.000;7.840;2022-11-15T14:42:16;15.90;99.90
1225;DHT22;602;48.000;7.840;2022-11-15T14:44:43;15.90;99.90
1225;DHT22;602;48.000;7.840;2022-11-15T14:47:10;15.90;99.90
1225;DHT22;602;48.000;7.840;2022-11-15T14:49:37;15.90;99.90
1225;DHT22;602;48.000;7.840;2022-11-15T14:52:11;16.00;99.90
1225;DHT22;602;48.000;7.840;2022-11-15T14:54:43;16.00;99.90
1225;DHT22;602;48.000;7.840;2022-11-15T14:57:11;16.00;99.90
1225;DHT22;602;48.000;7.840;2022-11-15T14:59:38;16.10;99.90
1225;DHT22;602;48.000;7.840;2022-11-15T15:02:11;16.10;99.90
1225;DHT22;602;48.000;7.840;2022-11-15T15:04:41;16.10;99.90
1225;DHT22;602;48.000;7.840;2022-11-15T15:07:08;16.20;99.90
1225;DHT22;602;48.000;7.840;2022-11-15T15:09:38;16.10;99.90
1225;DHT22;602;48.000;7.840;2022-11-15T15:12:22;16.00;99.90
1225;DHT22;602;48.000;7.840;2022-11-15T15:14:55;16.20;99.90
1225;DHT22;602;48.000;7.840;2022-11-15T15:17:22;16.20;99.90
1225;DHT22;602;48.000;7.840;2022-11-15T15:19:49;16.10;99.90
1225;DHT22;602;48.000;7.840;2022-11-15T15:22:17;16.10;99.90
1225;DHT22;602;48.000;7.840;2022-11-15T15:24:45;16.20;99.90
1225;DHT22;602;48.000;7.840;2022-11-15T15:27:14;16.20;99.90
1225;DHT22;602;48.000;7.840;2022-11-15T15:29:41;16.30;99.90
1225;DHT22;602;48.000;7.840;2022-11-15T15:32:08;16.30;99.90
1225;DHT22;602;48.000;7.840;2022-11-15T15:34:35;16.20;99.90
1225;DHT22;602;48.000;7.840;2022-11-15T15:37:17;16.10;99.90
1225;DHT22;602;48.000;7.840;2022-11-15T15:39:45;16.10;99.90
1225;DHT22;602;48.000;7.840;2022-11-15T15:42:13;16.10;99.90
1225;DHT22;602;48.000;7.840;2022-11-15T15:44:40;16.20;99.90
1225;DHT22;602;48.000;7.840;2022-11-15T15:47:10;16.10;99.90
1225;DHT22;602;48.000;7.840;2022-11-15T15:49:37;16.10;99.90
1225;DHT22;602;48.000;7.840;2022-11-15T15:52:04;16.00;99.90
1225;DHT22;602;48.000;7.840;2022-11-15T15:54:31;16.00;99.90
1225;DHT22;602;48.000;7.840;2022-11-15T15:56:58;16.10;99.90
1225;DHT22;602;48.000;7.840;2022-11-15T15:59:26;16.10;99.90
1225;DHT22;602;48.000;7.840;2022-11-15T16:01:53;16.10;99.90
1225;DHT22;602;48.000;7.840;2022-11-15T16:04:20;16.20;99.90
1225;DHT22;602;48.000;7.840;2022-11-15T16:06:47;16.20;99.90
1225;DHT22;602;48.000;7.840;2022-11-15T16:09:17;16.20;99.90
1225;DHT22;602;48.000;7.840;2022-11-15T16:11:45;16.10;99.90
1225;DHT22;602;48.000;7.840;2022-11-15T16:14:12;16.10;99.90
1225;DHT22;602;48.000;7.840;2022-11-15T16:16:43;16.00;99.90
1225;DHT22;602;48.000;7.840;2022-11-15T16:19:17;16.00;99.90
1225;DHT22;602;48.000;7.840;2022-11-15T16:21:56;16.00;99.90
1225;DHT22;602;48.000;7.840;2022-11-15T16:24:44;16.00;99.90
1225;DHT22;602;48.000;7.840;2022-11-15T16:27:14;16.00;99.90
1225;DHT22;602;48.000;7.840;2022-11-15T16:29:43;16.00;99.90
1225;DHT22;602;48.000;7.840;2022-11-15T16:32:28;15.90;99.90
1225;DHT22;602;48.000;7.840;2022-11-15T16:34:57;15.90;99.90
1225;DHT22;602;48.000;7.840;2022-11-15T16:37:33;15.80;99.90
1225;DHT22;602;48.000;7.840;2022-11-15T16:40:02;15.80;99.90
1225;DHT22;602;48.000;7.840;2022-11-15T16:42:39;15.80;99.90
1225;DHT22;602;48.000;7.840;2022-11-15T16:45:14;15.80;99.90
1225;DHT22;602;48.000;7.840;2022-11-15T16:47:45;15.70;99.90
1225;DHT22;602;48.000;7.840;2022-11-15T16:50:19;15.70;99.90
1225;DHT22;602;48.000;7.840;2022-11-15T16:52:49;15.70;99.90
1225;DHT22;602;48.000;7.840;2022-11-15T16:55:17;15.60;99.90
1225;DHT22;602;48.000;7.840;2022-11-15T16:57:55;15.60;99.90
1225;DHT22;602;48.000;7.840;2022-11-15T17:00:24;15.50;99.90